METAR Data
IDs: Format: Raw Decoded Include TAF

Data at: 2036 UTC 19 May 2019

PABI 191953Z 10007KT 10SM SCT065 SCT120 SCT150 BKN200 14/02 A2976 RMK AO2 SLP086 ACSL DSNT E CB DSNT E MOV E MDT CU DSNT ALQDS T01390022 $
PABI 191853Z COR 10SM SCT060 SCT120 SCT150 BKN200 12/05 A2978 RMK AO2 SLP090 ACSL DSNT E CB DSNT E MDT CU DSNT NE-E/W T01220050 $
PABI 191753Z 11003KT 10SM FEW010 FEW060 FEW120 SCT150 SCT200 11/05 A2979
PABI 191653Z 00000KT 10SM FEW010 FEW120 FEW150 SCT200 09/03 A2980 RMK AO2 SLP099 ACSL DSNT E LOW CLD BANK DSNT NW-NE T00940033 $
PABI 191553Z 00000KT 10SM FEW010 FEW120 FEW150 SCT200 07/03 A2981 RMK AO2 SLP103 LOW CLD BANK DSNT NW-NE T00720033 $
PABI 191453Z 20003KT 10SM FEW010 SCT120 BKN150 BKN200 05/03 A2982 RMK AO2 SLP107 T00500028 58001 $
PABI 191353Z AUTO 00000KT 10SM CLR 04/03 A2982 RMK AO2 SLP108 T00390028 TSNO $
PABI 191253Z AUTO 24003KT 10SM CLR 03/02 A2982 RMK AO2 SLP110 T00280022 TSNO $
PABI 191153Z AUTO 21005KT 10SM CLR 04/03 A2982 RMK AO2 SLP110 70006 T00390033 10106 20033 51003 TSNO $
PABI 191053Z AUTO 20003KT 10SM CLR 04/04 A2982 RMK AO2 SLP108 T00440039 TSNO $
PABI 190953Z AUTO 20004KT 10SM CLR 06/05 A2982 RMK AO2 SLP108 T00560050 TSNO $
PABI 190853Z AUTO 22004KT 10SM CLR 07/06 A2981 RMK AO2 SLP105 T00670056 401440022 53008 TSNO $
PABI 190753Z AUTO 23004KT 10SM CLR 07/06 A2980 RMK AO2 SLP099 T00720056 TSNO $
PABI 190653Z AUTO 29004KT 10SM CLR 09/07 A2980 RMK AO2 SLP097 T00940067 TSNO $
PABI 190553Z AUTO 29005KT 10SM CLR 11/08 A2979 RMK AO2 SLP094 T01060078 10144 20106 53013 TSNO $
PABI 190453Z 26010KT 10SM FEW020 FEW060 SCT120 SCT200 13/03 A2977 RMK AO2 SLP088 T01280028 $
PABI 190353Z 26009KT 10SM FEW020 FEW055 SCT110 SCT150 BKN200 13/02 A2975
PABI 190253Z 22011KT 10SM FEW020 FEW050 SCT120 BKN140 14/01 A2975 RMK AO2 SLP082 SHRA DSNT N T01390011 58004 $
PABI 190153Z 26007KT 10SM FEW020 SCT037 OVC045 14/03 A2975 RMK AO2 SLP084 T01390028 $
PABI 190053Z 24009KT 10SM FEW020 OVC037 12/04 A2976 RMK AO2 SLP091 T01170039 $
PABI 190024Z 23008KT 10SM FEW020 OVC031 11/05 A2977 RMK AO2 T01110050 $
PABI 182353Z 24012KT 10SM BKN029 OVC035 11/05 A2976 RMK AO2 SLP090 SHRA VC ALQDS 60006 T01060050 10122 20100 53002 $
PABI 182253Z 22004KT 10SM FEW020 OVC065 12/06 A2976 RMK AO2 RAE53 SLP087 P0000 T01170061 $
PABI 182153Z 20005KT 10SM -RA SCT047 OVC060 11/07 A2975 RMK AO2 SLP085 P0004 T01060072 $
PABI 182053Z 13005KT 6SM -RA OVC045 11/06 A2975 RMK AO2 RAB31 SLP084 P0002 60002 T01060061 55000 $
PABI 181953Z 27006KT 10SM SCT065 BKN085 BKN120 OVC200 12/03 A2973 RMK AO2 SLP075 SHRA DSNT NE-SE VIRGA VC N-E T01220028 $
PABI 181853Z 29005KT 10SM SCT065 SCT085 BKN120 OVC200 11/03 A2974 RMK AO2 SLP078 T01110033 $
PABI 181753Z 28007KT 10SM FEW065 SCT120 BKN150 OVC200 10/03 A2975 RMK AO2 SLP081 FU DSNT ALQDS T01000033 10100 20022 51006 $
PABI 181653Z 29007KT 10SM SCT150 BKN200 08/03 A2975 RMK AO2 SLP081 FU DSNT ALQDS T00780028 $
PABI 181553Z 27004KT 9SM SCT150 BKN200 06/01 A2974 RMK AO2 SLP079 FU DSNT ALQDS CIG THN T00610006 $
PABI 181453Z 23005KT 10SM SCT150 BKN200 06/M01 A2974 RMK AO2 SLP077 FU DSNT ALQDS CIG THN T00561006 51011 $
PABI 181353Z 23004KT 10SM SCT150 BKN200 03/M01 A2973 RMK AO2 SLP074 CIG THN T00331011 $
PABI 181253Z AUTO 00000KT 10SM CLR 02/M01 A2971 RMK AO2 SLP070 T00221006 TSNO $
PABI 181153Z AUTO 00000KT 10SM CLR 03/00 A2970 RMK AO2 SLP066 T00330000 10133 20033 53014 TSNO $
PABI 181053Z AUTO 00000KT 10SM CLR 06/02 A2969 RMK AO2 SLP060 T00560017 TSNO $
PABI 180953Z AUTO 00000KT 10SM CLR 07/02 A2967 RMK AO2 SLP053 T00670022 TSNO $
PABI 180853Z AUTO 16005KT 10SM CLR 09/03 A2966 RMK AO2 SLP049 T00890033 401720033 53016 TSNO $